Time;durP1;ratioP1;P1;durP2;ratioP2;P2;SDS_P1;SDS_P2;PMS_P1;PMS_P2;Temp;Humidity;BMP_temperature;BMP_pressure;BME280_temperature;BME280_humidity;BME280_pressure;Samples;Min_cycle;Max_cycle;Signal;HPM_P1;HPM_P2
2022/12/18 00:00:12;;;;;;;27.55;11.43;;;;;;;-4.45;96.49;102746.59;4988552;28;20301;-68
2022/12/18 00:06:37;;;;;;;17.00;8.77;;;;;;;-4.77;96.27;102755.78;4991826;28;20198;-68
2022/12/18 00:09:06;;;;;;;17.13;11.07;;;;;;;-4.72;96.05;102755.59;4995023;28;20175;-68
2022/12/18 00:11:35;;;;;;;27.45;10.55;;;;;;;-4.59;96.64;102762.13;4994655;28;20198;-68
2022/12/18 00:14:04;;;;;;;19.77;9.45;;;;;;;-4.69;96.14;102766.03;4994241;28;20221;-66
2022/12/18 00:16:35;;;;;;;18.77;11.43;;;;;;;-4.74;96.38;102773.31;4994057;28;20195;-66
2022/12/18 00:19:07;;;;;;;19.13;10.93;;;;;;;-4.87;95.40;102765.84;4981544;28;20207;-67
2022/12/18 00:26:13;;;;;;;23.38;11.77;;;;;;;-5.07;96.42;102757.78;4957624;28;20262;-66
2022/12/18 00:28:42;;;;;;;48.50;12.02;;;;;;;-5.00;96.91;102761.09;4986955;28;20225;-67
2022/12/18 00:31:13;;;;;;;23.90;8.80;;;;;;;-5.01;97.53;102760.22;4980182;28;20638;-66
2022/12/18 00:34:07;;;;;;;20.80;12.02;;;;;;;-4.80;97.73;102760.34;4997395;28;20194;-68
2022/12/18 00:36:37;;;;;;;22.60;8.93;;;;;;;-4.75;96.94;102756.59;4984615;28;20191;-67
2022/12/18 00:39:06;;;;;;;16.40;9.27;;;;;;;-4.68;96.58;102757.22;4973951;28;20203;-66
2022/12/18 00:44:23;;;;;;;27.92;11.30;;;;;;;-4.93;96.42;102760.78;4978663;28;20338;-67
2022/12/18 00:46:52;;;;;;;33.97;15.48;;;;;;;-4.89;97.33;102754.47;4989126;28;20208;-69
2022/12/18 00:49:22;;;;;;;21.00;7.97;;;;;;;-4.79;97.74;102748.84;4992978;28;20592;-68
2022/12/18 00:51:51;;;;;;;24.30;10.82;;;;;;;-4.60;97.17;102755.16;4982150;28;20715;-67
2022/12/18 00:54:20;;;;;;;21.65;10.65;;;;;;;-4.88;96.99;102750.91;4978132;28;20684;-67
2022/12/18 01:00:54;;;;;;;19.55;8.25;;;;;;;-4.71;97.25;102752.06;4978527;28;20636;-68
2022/12/18 01:03:23;;;;;;;35.30;13.05;;;;;;;-4.88;96.61;102750.91;4977910;28;20266;-65
2022/12/18 01:05:53;;;;;;;24.92;10.00;;;;;;;-4.85;96.74;102755.22;4997557;28;20288;-66
2022/12/18 01:08:22;;;;;;;40.53;12.70;;;;;;;-4.86;96.81;102753.50;4996954;28;20189;-68
2022/12/18 01:10:51;;;;;;;24.23;13.57;;;;;;;-4.92;96.81;102759.88;4979401;28;20201;-68
2022/12/18 01:13:20;;;;;;;18.80;11.48;;;;;;;-4.79;96.97;102759.44;4983052;28;20399;-66
2022/12/18 01:15:53;;;;;;;31.05;12.40;;;;;;;-4.65;95.92;102762.41;4976368;28;20718;-68
2022/12/18 01:18:22;;;;;;;23.27;9.35;;;;;;;-4.91;95.70;102777.44;4985201;28;20297;-68
2022/12/18 01:20:52;;;;;;;28.10;9.02;;;;;;;-4.95;95.72;102769.69;4997186;28;20190;-68
2022/12/18 01:23:21;;;;;;;27.17;12.40;;;;;;;-5.05;95.87;102779.75;4995393;28;20226;-67
2022/12/18 01:25:50;;;;;;;12.50;7.50;;;;;;;-5.21;95.95;102781.19;4996713;28;20230;-68
2022/12/18 01:28:19;;;;;;;21.05;12.70;;;;;;;-5.20;96.45;102790.84;4995272;28;20281;-66
2022/12/18 01:30:48;;;;;;;23.98;11.40;;;;;;;-5.19;96.46;102779.38;4979667;28;20204;-69
2022/12/18 01:33:19;;;;;;;23.73;10.90;;;;;;;-5.08;97.01;102785.09;4996477;28;20663;-67
2022/12/18 01:35:48;;;;;;;27.65;10.82;;;;;;;-5.01;96.92;102785.75;4970052;28;20223;-67
2022/12/18 01:38:17;;;;;;;14.82;10.65;;;;;;;-4.96;96.20;102789.97;4959501;28;20294;-67
2022/12/18 01:40:47;;;;;;;22.98;11.55;;;;;;;-5.09;95.93;102791.34;4975905;28;20199;-68
2022/12/18 01:43:16;;;;;;;21.33;11.65;;;;;;;-5.10;95.60;102786.09;4984897;28;20589;-66
2022/12/18 01:45:45;;;;;;;17.60;10.82;;;;;;;-5.19;96.05;102791.72;4980704;28;20715;-67
2022/12/18 01:48:14;;;;;;;28.50;10.55;;;;;;;-5.21;96.77;102793.53;4992140;28;20671;-66
2022/12/18 01:50:45;;;;;;;22.40;10.45;;;;;;;-5.00;96.87;102785.72;4995126;28;20290;-68
2022/12/18 01:53:20;;;;;;;29.02;10.15;;;;;;;-5.05;96.34;102787.66;4991878;28;20211;-68
2022/12/18 01:55:52;;;;;;;39.08;13.35;;;;;;;-4.90;95.88;102794.16;4975468;28;20607;-67
2022/12/18 01:58:28;;;;;;;31.17;11.93;;;;;;;-5.22;96.18;102790.03;4994596;28;20253;-67
2022/12/18 02:00:58;;;;;;;24.75;10.18;;;;;;;-5.16;96.54;102792.47;4996994;28;20209;-68
2022/12/18 02:03:27;;;;;;;19.17;8.98;;;;;;;-5.06;95.89;102798.25;4977267;28;20624;-69
2022/12/18 02:06:06;;;;;;;16.60;9.65;;;;;;;-5.27;94.80;102797.25;4976738;28;20323;-67
2022/12/18 02:08:44;;;;;;;20.20;11.73;;;;;;;-5.20;95.64;102806.69;4953749;28;20250;-68
2022/12/18 02:11:19;;;;;;;22.33;10.88;;;;;;;-5.36;95.62;102801.09;4984678;28;20614;-66
2022/12/18 02:14:01;;;;;;;14.40;7.40;;;;;;;-5.60;95.78;102801.06;4993965;28;20186;-67
2022/12/18 02:16:37;;;;;;;20.95;9.55;;;;;;;-5.66;96.72;102799.50;4976874;28;20270;-68
2022/12/18 02:19:16;;;;;;;25.63;9.15;;;;;;;-5.63;97.27;102802.06;4993567;28;20293;-68
2022/12/18 02:21:55;;;;;;;16.52;9.27;;;;;;;-5.59;97.38;102797.53;4994564;28;20282;-67
2022/12/18 02:24:35;;;;;;;23.67;10.93;;;;;;;-5.61;97.16;102796.69;4994050;28;20218;-68
2022/12/18 02:27:08;;;;;;;16.63;10.23;;;;;;;-5.54;97.18;102801.72;4995640;28;20194;-66
2022/12/18 02:29:42;;;;;;;17.13;9.25;;;;;;;-5.34;96.96;102798.41;4978369;28;20695;-66
2022/12/18 02:32:15;;;;;;;26.17;11.02;;;;;;;-5.20;96.54;102803.19;4978016;28;20226;-68
2022/12/18 02:34:57;;;;;;;31.73;11.15;;;;;;;-5.25;95.61;102813.91;4995476;28;20762;-67
2022/12/18 02:37:31;;;;;;;31.70;10.25;;;;;;;-5.39;96.03;102817.03;4994312;28;20199;-67
2022/12/18 02:40:05;;;;;;;24.08;10.27;;;;;;;-5.47;96.19;102815.59;4987583;28;20742;-68
2022/12/18 02:42:38;;;;;;;33.30;12.82;;;;;;;-5.48;96.24;102822.63;4959025;28;20200;-66
2022/12/18 02:45:09;;;;;;;26.55;11.98;;;;;;;-5.45;96.49;102819.88;4976298;28;20601;-67
2022/12/18 02:47:43;;;;;;;35.25;15.48;;;;;;;-5.30;96.78;102814.06;4993672;28;20581;-66
2022/12/18 02:50:23;;;;;;;26.60;10.80;;;;;;;-5.41;96.51;102823.28;4991752;28;20187;-67
2022/12/18 02:53:07;;;;;;;18.58;10.65;;;;;;;-5.39;96.16;102824.09;4973877;28;20194;-67
2022/12/18 02:55:49;;;;;;;20.55;9.80;;;;;;;-5.64;96.33;102826.69;4994726;28;20297;-67
2022/12/18 02:58:28;;;;;;;21.52;11.07;;;;;;;-5.38;96.99;102817.91;4983453;28;20211;-67
2022/12/18 03:01:08;;;;;;;16.73;9.75;;;;;;;-5.18;96.70;102810.16;4977375;28;20210;-68
2022/12/18 03:03:42;;;;;;;41.25;13.70;;;;;;;-5.24;96.04;102810.34;4993223;28;20249;-66
2022/12/18 03:06:19;;;;;;;24.52;11.70;;;;;;;-5.19;96.20;102816.34;4993938;28;20324;-65
2022/12/18 03:08:55;;;;;;;40.05;12.10;;;;;;;-5.38;95.63;102817.91;4993521;28;20232;-67
2022/12/18 03:14:15;;;;;;;29.52;15.57;;;;;;;-5.22;95.42;102819.06;4969989;28;20251;-66
2022/12/18 03:16:45;;;;;;;19.50;8.27;;;;;;;-5.30;95.44;102810.56;4976493;28;20265;-67
2022/12/18 03:19:20;;;;;;;34.50;13.55;;;;;;;-5.43;95.56;102814.56;4974437;28;20196;-68
2022/12/18 03:21:55;;;;;;;24.77;16.17;;;;;;;-5.51;95.77;102820.09;4957454;28;20690;-66
2022/12/18 03:27:18;;;;;;;22.15;11.82;;;;;;;-5.45;96.69;102821.66;4997476;28;20561;-76
2022/12/18 03:29:55;;;;;;;25.40;10.82;;;;;;;-5.57;96.64;102824.72;4997512;28;20214;-78
2022/12/18 03:32:32;;;;;;;36.63;15.32;;;;;;;-5.65;96.35;102826.75;4997925;28;20202;-76
2022/12/18 03:35:05;;;;;;;40.00;16.35;;;;;;;-5.64;96.96;102831.09;4996531;28;20191;-77
2022/12/18 03:37:38;;;;;;;44.55;13.43;;;;;;;-5.68;96.44;102825.09;4995946;28;20187;-76
2022/12/18 03:40:10;;;;;;;27.90;13.13;;;;;;;-5.64;96.93;102820.56;4996935;28;20693;-77
2022/12/18 03:42:47;;;;;;;33.50;14.65;;;;;;;-5.60;96.79;102827.44;4999981;28;20361;-76
2022/12/18 03:45:27;;;;;;;34.67;14.60;;;;;;;-5.56;96.85;102826.44;5016965;28;20206;-77
2022/12/18 03:48:03;;;;;;;29.80;14.23;;;;;;;-5.50;96.21;102820.94;5032869;28;20285;-76
2022/12/18 03:50:45;;;;;;;30.50;10.93;;;;;;;-5.52;95.98;102820.16;5033279;28;20300;-76
2022/12/18 03:53:26;;;;;;;31.27;14.05;;;;;;;-5.62;95.49;102829.28;5023550;28;20261;-77
2022/12/18 03:55:59;;;;;;;38.45;15.15;;;;;;;-5.47;96.07;102834.88;4999917;28;20187;-77
2022/12/18 03:58:36;;;;;;;34.63;13.35;;;;;;;-5.40;96.28;102830.28;5032930;28;20185;-79
2022/12/18 04:01:21;;;;;;;26.35;11.32;;;;;;;-5.58;95.69;102837.06;5045850;28;20760;-77
2022/12/18 04:03:52;;;;;;;35.53;17.00;;;;;;;-5.31;95.94;102835.22;5033060;28;20200;-77
2022/12/18 04:06:22;;;;;;;50.78;19.83;;;;;;;-5.31;95.01;102827.31;5046491;28;20216;-77
2022/12/18 04:08:56;;;;;;;32.88;14.65;;;;;;;-5.49;94.99;102826.19;5045188;28;20186;-76
2022/12/18 04:11:27;;;;;;;46.28;18.10;;;;;;;-5.63;95.53;102828.44;5046619;28;20198;-76
2022/12/18 04:13:58;;;;;;;32.83;18.83;;;;;;;-5.58;96.48;102836.19;5042958;28;20198;-77
2022/12/18 04:16:29;;;;;;;31.48;11.93;;;;;;;-5.63;96.33;102844.25;5038705;28;20657;-77
2022/12/18 04:19:02;;;;;;;42.22;17.45;;;;;;;-5.41;96.07;102854.94;5021021;28;20197;-78
2022/12/18 04:21:37;;;;;;;38.17;18.42;;;;;;;-5.54;95.57;102848.34;5039549;28;20196;-78
2022/12/18 04:24:06;;;;;;;21.83;15.20;;;;;;;-5.60;95.28;102849.41;5038100;28;20202;-77
2022/12/18 04:26:38;;;;;;;27.35;14.00;;;;;;;-5.68;96.00;102846.19;5036465;28;20226;-77
2022/12/18 04:29:28;;;;;;;46.15;18.15;;;;;;;-5.72;94.99;102842.78;5022019;28;20226;-78
2022/12/18 04:31:59;;;;;;;34.88;18.23;;;;;;;-5.76;95.49;102842.94;5039101;28;20188;-76
2022/12/18 04:34:30;;;;;;;43.10;15.25;;;;;;;-5.81;95.70;102840.44;5022131;28;20263;-76
2022/12/18 04:37:00;;;;;;;20.95;13.63;;;;;;;-5.89;95.95;102842.50;5021030;28;20205;-76
2022/12/18 04:39:30;;;;;;;26.52;13.82;;;;;;;-6.07;96.39;102858.91;5020879;28;20222;-77
2022/12/18 04:42:05;;;;;;;28.55;12.50;;;;;;;-6.02;96.71;102854.34;5041428;28;20190;-75
2022/12/18 04:44:35;;;;;;;30.52;14.00;;;;;;;-5.99;96.17;102853.38;5038260;28;20206;-77
2022/12/18 04:47:06;;;;;;;32.20;13.00;;;;;;;-5.99;96.54;102843.69;5022069;28;20244;-77
2022/12/18 04:49:35;;;;;;;27.65;13.82;;;;;;;-6.06;96.58;102844.81;5022214;28;20210;-77
2022/12/18 04:52:07;;;;;;;34.55;11.60;;;;;;;-6.10;96.58;102847.59;5025773;28;20213;-77
2022/12/18 04:54:36;;;;;;;24.13;10.07;;;;;;;-6.09;97.28;102844.91;5031191;28;20174;-74
2022/12/18 04:57:05;;;;;;;25.38;15.95;;;;;;;-5.80;97.04;102841.28;5031687;28;20198;-75
2022/12/18 04:59:35;;;;;;;19.70;10.02;;;;;;;-5.89;96.59;102850.41;5026422;28;20202;-77
2022/12/18 05:02:05;;;;;;;28.95;11.25;;;;;;;-5.78;96.33;102856.16;5021143;28;20258;-76
2022/12/18 05:04:35;;;;;;;20.02;11.18;;;;;;;-5.73;95.71;102862.16;5020062;28;20201;-75
2022/12/18 05:07:04;;;;;;;25.45;9.90;;;;;;;-5.82;95.58;102865.09;5020184;28;20300;-76
2022/12/18 05:09:33;;;;;;;35.92;16.05;;;;;;;-5.93;95.50;102864.59;5021024;28;20214;-77
2022/12/18 05:12:02;;;;;;;30.35;13.85;;;;;;;-5.99;94.96;102867.44;5021201;28;20236;-77
2022/12/18 05:14:31;;;;;;;24.27;9.60;;;;;;;-6.02;95.13;102878.09;5020276;28;20187;-76
2022/12/18 05:17:00;;;;;;;18.52;12.68;;;;;;;-6.00;95.16;102875.41;5020960;28;20190;-75
2022/12/18 05:19:31;;;;;;;25.33;14.75;;;;;;;-5.87;95.44;102887.28;5023649;28;20210;-77
2022/12/18 05:22:01;;;;;;;32.35;12.38;;;;;;;-5.89;95.42;102897.88;5021375;28;20179;-77
2022/12/18 05:24:30;;;;;;;32.70;15.50;;;;;;;-5.82;95.42;102898.50;5025139;28;20217;-77
2022/12/18 05:26:59;;;;;;;33.15;13.65;;;;;;;-5.96;94.94;102899.00;5022043;28;20222;-77
2022/12/18 05:29:28;;;;;;;16.63;8.63;;;;;;;-6.13;95.36;102903.91;5022470;28;20202;-76
2022/12/18 05:31:57;;;;;;;22.83;11.32;;;;;;;-6.11;96.03;102901.22;5025957;28;20190;-76
2022/12/18 05:34:27;;;;;;;26.98;11.68;;;;;;;-5.83;96.12;102904.69;5019584;28;20188;-76
2022/12/18 05:36:57;;;;;;;26.33;10.57;;;;;;;-5.96;96.17;102898.13;5018233;28;20671;-77
2022/12/18 05:39:26;;;;;;;18.80;8.93;;;;;;;-5.87;96.49;102897.84;5020348;28;20628;-78
2022/12/18 05:41:55;;;;;;;17.98;10.63;;;;;;;-5.73;95.93;102901.72;5020094;28;20198;-75
2022/12/18 05:44:25;;;;;;;23.40;11.70;;;;;;;-5.68;95.32;102903.34;5018462;28;20186;-78
2022/12/18 05:46:54;;;;;;;31.15;12.93;;;;;;;-5.84;95.08;102902.97;5018783;28;20206;-77
2022/12/18 05:49:24;;;;;;;16.70;12.73;;;;;;;-5.87;95.02;102908.38;5021777;28;20210;-77
2022/12/18 05:51:53;;;;;;;27.75;9.93;;;;;;;-6.00;95.60;102912.31;5020520;28;20190;-77
2022/12/18 05:54:24;;;;;;;26.10;11.32;;;;;;;-5.80;95.58;102908.09;5022894;28;20197;-77
2022/12/18 05:56:53;;;;;;;16.25;11.23;;;;;;;-5.73;95.39;102907.00;5023135;28;20198;-77
2022/12/18 05:59:23;;;;;;;29.95;17.13;;;;;;;-5.74;94.31;102902.63;5005719;28;20206;-77
2022/12/18 06:01:52;;;;;;;22.63;9.45;;;;;;;-5.87;94.77;102914.50;5024419;28;20183;-77
2022/12/18 06:04:22;;;;;;;28.63;10.00;;;;;;;-5.68;94.92;102913.88;5008508;28;20270;-78
2022/12/18 06:06:51;;;;;;;19.63;8.15;;;;;;;-5.95;94.81;102921.78;5024685;28;20202;-76
2022/12/18 06:09:20;;;;;;;30.20;12.80;;;;;;;-5.86;95.22;102926.75;5024014;28;20642;-77
2022/12/18 06:11:53;;;;;;;21.65;9.93;;;;;;;-5.89;95.67;102926.88;5021692;28;20190;-76
2022/12/18 06:14:22;;;;;;;21.85;8.88;;;;;;;-5.77;95.40;102928.25;5002550;28;20206;-76
2022/12/18 06:16:52;;;;;;;22.77;12.68;;;;;;;-5.68;95.33;102924.44;5019440;28;20190;-76
2022/12/18 06:19:21;;;;;;;24.20;10.05;;;;;;;-5.57;94.44;102927.59;5018182;28;20213;-76
2022/12/18 06:21:51;;;;;;;37.45;11.10;;;;;;;-5.61;93.32;102929.47;5020011;28;20182;-76
2022/12/18 06:24:21;;;;;;;36.33;12.15;;;;;;;-5.64;94.11;102933.97;5018111;28;20190;-77
2022/12/18 06:26:51;;;;;;;14.38;9.38;;;;;;;-5.86;94.59;102932.03;5019045;28;20214;-77
2022/12/18 06:29:21;;;;;;;31.65;12.18;;;;;;;-5.79;95.02;102928.28;5017774;28;20301;-76
2022/12/18 06:31:50;;;;;;;28.23;13.65;;;;;;;-5.72;95.14;102936.88;5018626;28;20174;-77
2022/12/18 06:34:19;;;;;;;15.95;10.18;;;;;;;-5.67;95.21;102936.72;5020005;28;20204;-77
2022/12/18 06:36:48;;;;;;;31.95;14.77;;;;;;;-5.75;95.31;102953.63;5020004;28;20715;-77
2022/12/18 06:39:17;;;;;;;57.75;12.93;;;;;;;-5.79;95.30;102948.50;5022194;28;20210;-77
2022/12/18 06:41:47;;;;;;;30.40;13.70;;;;;;;-5.61;95.00;102954.97;5020140;28;20190;-76
2022/12/18 06:44:17;;;;;;;34.28;12.73;;;;;;;-5.70;94.53;102966.69;5020240;28;20561;-77
2022/12/18 06:46:47;;;;;;;38.50;13.02;;;;;;;-5.71;95.02;102962.31;5021653;28;20194;-77
2022/12/18 06:49:16;;;;;;;22.92;9.98;;;;;;;-5.68;94.68;102961.38;5024361;28;20236;-78
2022/12/18 06:51:45;;;;;;;26.08;12.50;;;;;;;-5.69;94.45;102965.78;5025442;28;20185;-77
2022/12/18 06:54:15;;;;;;;27.98;10.35;;;;;;;-5.76;94.33;102970.38;5026579;28;20285;-77
2022/12/18 06:56:46;;;;;;;45.20;16.08;;;;;;;-5.61;94.80;102974.31;5024230;28;20466;-76
2022/12/18 06:59:17;;;;;;;28.60;13.13;;;;;;;-5.62;94.61;102988.44;5005277;28;20225;-78
2022/12/18 07:01:46;;;;;;;23.27;11.55;;;;;;;-5.60;94.33;102980.44;5028473;28;20246;-77
2022/12/18 07:04:15;;;;;;;17.25;13.13;;;;;;;-5.59;94.68;102977.78;5029952;28;20190;-77
2022/12/18 07:06:44;;;;;;;21.77;8.93;;;;;;;-5.49;94.78;102967.78;5015982;28;20269;-75
2022/12/18 07:09:14;;;;;;;23.23;8.98;;;;;;;-5.56;94.33;102968.88;5036825;28;20213;-78
2022/12/18 07:11:43;;;;;;;23.10;11.55;;;;;;;-5.65;94.61;102967.41;5036911;28;20187;-74
2022/12/18 07:14:12;;;;;;;22.33;10.25;;;;;;;-5.73;94.92;102970.28;5037584;28;20194;-75
2022/12/18 07:16:42;;;;;;;28.83;13.52;;;;;;;-5.75;95.18;102972.09;5037075;28;20226;-77
2022/12/18 07:19:12;;;;;;;30.73;12.38;;;;;;;-5.57;95.41;102972.47;5019786;28;20205;-76
2022/12/18 07:21:41;;;;;;;29.42;13.57;;;;;;;-5.49;94.67;102983.63;5037700;28;20213;-76
2022/12/18 07:24:10;;;;;;;39.03;13.25;;;;;;;-5.57;94.09;102980.38;5037806;28;20201;-74
2022/12/18 07:26:40;;;;;;;21.42;11.20;;;;;;;-5.55;94.79;102983.81;5036076;28;20221;-75
2022/12/18 07:29:09;;;;;;;31.50;13.80;;;;;;;-5.58;94.91;102984.78;5037360;28;20162;-76
2022/12/18 07:31:38;;;;;;;30.80;15.63;;;;;;;-5.64;94.77;102978.81;5037415;28;20159;-77
2022/12/18 07:34:12;;;;;;;30.42;13.32;;;;;;;-5.61;95.01;102973.44;5020009;28;20179;-77
2022/12/18 07:36:42;;;;;;;27.00;13.27;;;;;;;-5.41;95.25;102976.31;5031130;28;20178;-77
2022/12/18 07:39:12;;;;;;;31.25;15.18;;;;;;;-5.31;95.29;102977.75;5018432;28;20222;-77
2022/12/18 07:41:45;;;;;;;20.92;13.30;;;;;;;-5.36;94.63;102971.75;5001720;28;20194;-77
2022/12/18 07:44:17;;;;;;;21.20;9.27;;;;;;;-5.18;95.24;102978.22;5034564;28;20203;-76
2022/12/18 07:46:46;;;;;;;20.20;10.80;;;;;;;-5.22;94.88;102977.44;5020468;28;20208;-78
2022/12/18 07:49:17;;;;;;;27.33;15.68;;;;;;;-5.13;94.63;102977.13;5018155;28;20214;-76
2022/12/18 07:51:48;;;;;;;24.23;13.65;;;;;;;-5.04;94.45;102976.00;5016482;28;20343;-76
2022/12/18 07:54:19;;;;;;;40.42;15.85;;;;;;;-5.22;93.81;102976.56;5018527;28;20197;-77
2022/12/18 07:56:48;;;;;;;32.80;12.93;;;;;;;-5.29;94.27;102965.38;5018642;28;20213;-77
2022/12/18 07:59:18;;;;;;;25.13;15.57;;;;;;;-5.37;94.59;102972.66;5020017;28;20725;-76
2022/12/18 08:01:47;;;;;;;31.20;12.63;;;;;;;-5.31;95.03;102977.75;5020321;28;20256;-78
2022/12/18 08:04:18;;;;;;;27.38;12.82;;;;;;;-5.29;94.74;102989.13;5019753;28;20190;-78
2022/12/18 08:06:47;;;;;;;42.65;13.10;;;;;;;-5.40;94.53;102989.47;5019935;28;20167;-76
2022/12/18 08:09:17;;;;;;;40.10;15.88;;;;;;;-5.22;95.56;102993.28;5019228;28;20212;-77
2022/12/18 08:11:46;;;;;;;31.17;13.18;;;;;;;-5.19;94.79;102987.91;5036443;28;20194;-76
2022/12/18 08:14:16;;;;;;;28.98;13.05;;;;;;;-5.13;94.78;102985.06;5020833;28;20174;-77
2022/12/18 08:16:45;;;;;;;38.22;16.80;;;;;;;-5.27;94.21;102989.91;5019141;28;20218;-77
2022/12/18 08:19:14;;;;;;;39.08;13.77;;;;;;;-5.62;94.92;102988.44;5019156;28;20462;-77
2022/12/18 08:21:45;;;;;;;36.33;10.80;;;;;;;-5.46;95.65;102991.44;5018361;28;20262;-77
2022/12/18 08:24:15;;;;;;;30.90;11.40;;;;;;;-5.18;96.13;103000.22;5019270;28;20583;-76
2022/12/18 08:26:44;;;;;;;34.00;14.00;;;;;;;-5.16;95.12;103003.66;5034419;28;20513;-78
2022/12/18 08:29:33;;;;;;;23.20;13.98;;;;;;;-5.13;95.47;103000.06;5001292;28;20277;-78
2022/12/18 08:32:02;;;;;;;32.72;12.60;;;;;;;-5.00;94.54;102998.72;5020886;28;20198;-78
2022/12/18 08:34:32;;;;;;;35.30;11.23;;;;;;;-5.01;93.63;102997.88;5021041;28;20198;-77
2022/12/18 08:37:02;;;;;;;29.45;14.70;;;;;;;-4.98;93.02;103008.31;5022281;28;20675;-78
2022/12/18 08:39:32;;;;;;;47.20;14.13;;;;;;;-5.19;93.28;103006.41;5023868;28;20236;-77
2022/12/18 08:44:48;;;;;;;18.27;11.27;;;;;;;-4.76;92.60;103018.16;5025824;28;20237;-76
2022/12/18 08:47:17;;;;;;;24.23;14.27;;;;;;;-4.79;92.58;103013.00;5025335;28;20214;-77
2022/12/18 08:49:46;;;;;;;22.88;10.00;;;;;;;-4.86;92.08;103013.19;5030189;28;20609;-77
2022/12/18 08:52:17;;;;;;;26.92;15.70;;;;;;;-4.91;91.58;103020.41;5029283;28;20186;-77
2022/12/18 08:54:46;;;;;;;16.27;9.15;;;;;;;-4.71;91.75;103027.66;5026058;28;20174;-78
2022/12/18 08:57:15;;;;;;;24.92;10.95;;;;;;;-4.93;91.81;103027.50;5024346;28;20543;-76
2022/12/18 08:59:45;;;;;;;17.27;7.97;;;;;;;-4.80;92.15;103029.75;5022434;28;20210;-78
2022/12/18 09:02:14;;;;;;;25.88;11.18;;;;;;;-4.69;91.26;103030.22;5023861;28;20214;-78
2022/12/18 09:04:44;;;;;;;28.75;14.60;;;;;;;-4.74;91.56;103033.03;5023427;28;20300;-77
2022/12/18 09:07:16;;;;;;;30.38;10.93;;;;;;;-4.63;91.30;103030.03;5022087;28;20246;-76
2022/12/18 09:09:47;;;;;;;31.10;9.60;;;;;;;-4.76;90.32;103044.59;5234942;23;21128;31
2022/12/18 09:12:19;;;;;;;18.92;9.40;;;;;;;-4.93;90.61;103035.44;5055327;28;20283;-71
2022/12/18 09:14:49;;;;;;;25.58;13.55;;;;;;;-5.00;90.94;103040.97;5076064;28;20207;-71
2022/12/18 09:17:18;;;;;;;32.65;16.60;;;;;;;-4.90;90.70;103047.69;5056533;28;20719;-72
2022/12/18 09:19:47;;;;;;;28.70;14.80;;;;;;;-4.84;91.18;103045.69;5056654;28;20192;-72
2022/12/18 09:22:18;;;;;;;21.55;12.88;;;;;;;-4.48;90.15;103038.28;5064778;28;20270;-72
2022/12/18 09:27:51;;;;;;;25.75;13.13;;;;;;;-4.36;90.09;103044.94;5087069;23;20296;-68
2022/12/18 09:30:20;;;;;;;31.27;11.90;;;;;;;-4.53;90.13;103036.72;5003419;28;20586;-66
2022/12/18 09:32:49;;;;;;;26.55;10.80;;;;;;;-4.49;89.59;103051.56;5009083;28;20183;-68
2022/12/18 09:35:18;;;;;;;19.75;8.60;;;;;;;-4.64;89.58;103041.50;5003112;28;20218;-67
2022/12/18 09:37:48;;;;;;;28.60;11.15;;;;;;;-4.56;90.31;103052.69;4996596;28;20183;-67
2022/12/18 09:40:21;;;;;;;26.77;14.93;;;;;;;-4.38;90.17;103047.63;4996298;28;20214;-66
2022/12/18 09:42:57;;;;;;;18.50;8.88;;;;;;;-4.43;89.80;103032.84;4990285;28;20682;-64
2022/12/18 09:45:27;;;;;;;14.40;9.18;;;;;;;-4.50;89.62;103028.69;4991166;28;20769;-66
2022/12/18 09:47:57;;;;;;;23.40;11.45;;;;;;;-4.45;89.74;103030.25;4981487;28;20214;-66
2022/12/18 09:50:39;;;;;;;19.85;9.90;;;;;;;-4.45;89.53;103024.09;4978212;28;20171;-67
2022/12/18 09:53:17;;;;;;;31.92;11.38;;;;;;;-4.50;89.49;103018.09;4983594;28;20229;-65
2022/12/18 09:55:48;;;;;;;20.85;12.18;;;;;;;-4.44;89.38;103009.97;4996179;28;20218;-67
2022/12/18 09:58:26;;;;;;;17.27;7.78;;;;;;;-4.27;89.32;103009.38;4992145;28;20187;-67
2022/12/18 10:00:56;;;;;;;20.13;9.27;;;;;;;-4.16;89.18;103002.75;5003560;28;20241;-68
2022/12/18 10:03:26;;;;;;;26.75;14.50;;;;;;;-4.10;88.35;102994.63;4972963;28;20250;-66
2022/12/18 10:06:03;;;;;;;27.95;13.00;;;;;;;-3.91;88.59;102978.03;4989216;28;20697;-67
2022/12/18 10:08:42;;;;;;;22.75;12.50;;;;;;;-3.77;87.74;102981.00;4995942;28;20199;-65
2022/12/18 10:11:39;;;;;;;24.08;11.48;;;;;;;-3.70;87.75;102985.16;4996095;28;20175;-66
2022/12/18 10:14:20;;;;;;;34.05;15.10;;;;;;;-3.66;88.46;102984.97;4995933;28;20210;-67
2022/12/18 10:16:59;;;;;;;35.75;18.77;;;;;;;-3.62;88.72;102985.72;4995302;28;20265;-68
2022/12/18 10:19:40;;;;;;;22.52;11.68;;;;;;;-3.61;89.02;102987.44;4995541;28;20187;-68
2022/12/18 10:22:22;;;;;;;19.05;9.60;;;;;;;-3.56;89.23;102990.78;4996213;28;20209;-67
2022/12/18 10:24:59;;;;;;;32.65;13.38;;;;;;;-3.64;90.17;102992.88;4995802;28;20191;-68
2022/12/18 10:27:29;;;;;;;36.08;14.60;;;;;;;-3.57;89.84;102989.03;4995951;28;20291;-68
2022/12/18 10:29:59;;;;;;;22.25;9.35;;;;;;;-3.63;91.21;102989.31;4996203;28;20821;-67
2022/12/18 10:32:30;;;;;;;27.15;13.55;;;;;;;-3.71;91.41;102980.78;4996016;28;20218;-66
2022/12/18 10:35:00;;;;;;;26.98;11.55;;;;;;;-3.78;91.76;102980.19;4995746;28;20224;-66
2022/12/18 10:37:30;;;;;;;25.95;12.60;;;;;;;-3.72;92.20;102971.97;4988241;28;20602;-68
2022/12/18 10:40:18;;;;;;;25.13;12.93;;;;;;;-3.63;92.65;102974.25;4995583;28;20163;-67
2022/12/18 10:43:06;;;;;;;19.73;9.90;;;;;;;-3.54;91.77;102962.47;4995280;28;20195;-69
2022/12/18 10:45:35;;;;;;;25.55;12.18;;;;;;;-3.33;91.35;102966.00;4995588;28;20214;-67
2022/12/18 10:48:05;;;;;;;27.63;14.18;;;;;;;-3.35;90.31;102962.59;5012921;28;20194;-67
2022/12/18 10:50:37;;;;;;;26.40;14.68;;;;;;;-3.25;90.81;102951.56;5015793;28;20194;-68
2022/12/18 10:53:28;;;;;;;28.30;13.35;;;;;;;-3.12;89.91;102952.75;4999964;28;20210;-67
2022/12/18 10:56:03;;;;;;;22.98;11.30;;;;;;;-3.13;90.36;102940.44;4997395;28;20233;-67
2022/12/18 10:58:40;;;;;;;17.95;9.65;;;;;;;-2.91;89.77;102940.41;4995244;28;20196;-68
2022/12/18 11:01:13;;;;;;;28.40;12.80;;;;;;;-2.86;89.12;102937.56;4983996;28;20186;-68
2022/12/18 11:03:44;;;;;;;32.15;13.55;;;;;;;-3.00;89.66;102934.63;4993726;28;20536;-67
2022/12/18 11:06:16;;;;;;;26.90;11.23;;;;;;;-2.92;89.76;102935.16;4994903;28;20215;-66
2022/12/18 11:08:59;;;;;;;37.92;15.40;;;;;;;-2.92;89.49;102937.81;4995617;28;20203;-69
2022/12/18 11:11:32;;;;;;;32.83;14.35;;;;;;;-2.78;88.77;102930.13;4994206;28;20625;-67
2022/12/18 11:14:04;;;;;;;26.45;11.30;;;;;;;-2.84;88.59;102938.34;4995689;28;20651;-67
2022/12/18 11:16:37;;;;;;;37.70;11.90;;;;;;;-2.80;88.06;102934.63;4995193;28;20238;-69
2022/12/18 11:19:16;;;;;;;38.72;17.00;;;;;;;-2.72;89.15;102935.16;4995797;28;20270;-68
2022/12/18 11:21:45;;;;;;;32.83;12.30;;;;;;;-2.55;88.60;102935.25;4997538;28;20190;-68
2022/12/18 11:24:26;;;;;;;39.80;16.80;;;;;;;-2.82;88.27;102932.06;4996550;28;20633;-67
2022/12/18 11:26:57;;;;;;;31.73;13.68;;;;;;;-2.92;89.25;102940.47;4994824;28;20221;-64
2022/12/18 11:29:36;;;;;;;28.23;16.20;;;;;;;-3.08;89.97;102935.81;4995718;28;20202;-68
2022/12/18 11:32:38;;;;;;;39.53;12.32;;;;;;;-2.98;90.30;102935.41;4981975;28;20646;-69
2022/12/18 11:35:17;;;;;;;37.13;17.92;;;;;;;-3.02;90.63;102929.41;4980270;28;20313;-68
2022/12/18 11:37:51;;;;;;;30.33;13.90;;;;;;;-3.03;91.06;102929.44;4995218;28;20611;-68
2022/12/18 11:40:27;;;;;;;27.25;13.32;;;;;;;-2.98;91.07;102932.75;4994425;28;20191;-67
2022/12/18 11:43:05;;;;;;;27.52;13.45;;;;;;;-3.02;90.72;102929.41;4994411;28;20186;-68
2022/12/18 11:45:40;;;;;;;29.40;12.10;;;;;;;-2.90;91.56;102938.59;4994098;28;20223;-67
2022/12/18 11:48:17;;;;;;;34.08;14.80;;;;;;;-2.98;91.22;102946.00;5003857;28;20552;-69
2022/12/18 11:50:51;;;;;;;28.20;13.35;;;;;;;-3.05;90.80;102955.16;5009845;28;20221;-68
2022/12/18 11:53:21;;;;;;;27.60;13.20;;;;;;;-3.13;91.04;102948.38;4994465;28;20197;-68
2022/12/18 11:56:15;;;;;;;30.58;14.50;;;;;;;-2.93;90.93;102959.94;4994663;28;20625;-68
2022/12/18 11:58:52;;;;;;;27.48;13.10;;;;;;;-2.84;91.16;102973.66;4991308;28;20217;-68
2022/12/18 12:01:37;;;;;;;25.60;11.43;;;;;;;-2.78;89.72;102962.78;4995167;28;20179;-67